KDLF/DLF METAR and TAF weather

Enter ICAO airport designator
Station Type Date Time Source
KDLF METAR 2022/06/25 21:56 UTC NOAA

KDLF 252156Z AUTO 12009G16KT 10SM CLR 38/10 A2986 RMK AO2 SLP096 T03800103 TSNO $


Station Type Date Time Source
KDLF Decoded METAR 2022/06/25 21:56 UTC NOAA

Laughlin, Laughlin Air Force Base Auxiliary Airfield, TX, United States (KDLF) 29-07-00N 100-28-00W 294M
Jun 25, 2022 - 05:56 PM EDT / 2022.06.25 2156 UTC
Wind: from the ESE (120 degrees) at 10 MPH (9 KT) gusting to 18 MPH (16 KT):0
Visibility: 10 mile(s):0
Sky conditions: clear
Temperature: 100.4 F (38.0 C)
Heat index: 97.2 F (36.2 C):1
Dew Point: 50.5 F (10.3 C)
Relative Humidity: 18%
Pressure (altimeter): 29.86 in. Hg (1011 hPa)
ob: KDLF 252156Z AUTO 12009G16KT 10SM CLR 38/10 A2986 RMK AO2 SLP096 T03800103 TSNO
cycle: 22

Station Type Date Time Source
KDLF TAF 2022/06/24 22:48 UTC NOAA

TAF KDLF 242245Z 2422/2601 13012G18KT 9999 SKC QNH2989INS
BECMG 2501/2502 15009KT 9999 SKC QNH2979INS
BECMG 2515/2516 13012KT 9999 SKC QNH2996INS TX40/2423Z TN24/2512Z LAST NO
AMDS AFT 2422 NEXT 2618

Example: see airport list